Traver, CA

3:59 PM PDT on September 01, 2014 (GMT -0700)
Jensen McClarty, LLC | Change Station
CLOSE
Current Station
Personal Weather Station
Location: Kingsburg, CA
Elevation: 282 ft
Nearby Weather Stations

Elev 282 ft 36.43 °N, 119.52 °W | Updated 3 minutes ago

Clear
Clear
95.2 °F
Feels Like 93 °F
N
3.0
Wind Variable Wind from West
Gusts 7.0 mph

Today
High -- | Low -- °F
--% Chance of Precip.
Yesterday
High -- | Low -- °F
Precip. -- in
6:29 AM 7:25 PM
Waxing Crescent, 45% visible
Pressure 29.73 in
Visibility 10.0 miles
Clouds Clear
Heat Index 93 °F
Dew Point 55 °F
Humidity 26%
Rainfall 0.00 in
Snow Depth Not available.
UV 2.3 out of 12
Pollen 9.20 out of 12
Air Quality Not available.
Flu Activity Not available.
METAR KVIS 012255Z AUTO 27006KT 10SM CLR 35/12 A2973 RMK AO1

More Conditions Fewer Conditions

Pressure 29.73 in
Visibility 10.0 miles
Clouds Clear
Heat Index 93 °F
Dew Point 55 °F
Humidity 26%
Rainfall 0.00 in
Snow Depth Not available.
UV 2.3 out of 12
Pollen 9.20 out of 12
Air Quality Not available.
Flu Activity Not available.
METAR KVIS 012255Z AUTO 27006KT 10SM CLR 35/12 A2973 RMK AO1

More Conditions Fewer Conditions

10-Day Weather Forecast

Almanac

Astronomy

Sep. 01, 2014 Rise Set
Actual Time 6:29 AM PDT 7:25 PM PDT
Civil Twilight 6:02 AM PDT 7:52 PM PDT
Nautical Twilight 5:31 AM PDT 8:23 PM PDT
Astronomical Twilight 4:59 AM PDT 8:55 PM PDT
Moon 1:08 PM PDT 11:42 PM PDT
Length of Visible Light 13h 49m
Length of Day
12h 56m
Tomorrow will be 2m 13s shorter.
Waxing Crescent, 45% of the Moon is Illuminated
Today
Waxing Crescent
Sep 2
First Quarter
Sep 8
Full
Sep 15
Last Quarter
Sep 24
New

Today's Extremes

State Highs State Lows

Community

WunderPhotos

Upload Photos

1,749,427 photos uploaded!

Nearby

Air Quality

  Air Quality AQ Index Pollutant
Yesterday Good
OZONE
Yesterday Good
PM2.5
Monday Moderate
OZONE
Tuesday Moderate
PM2.5
Wednesday Moderate
PM2.5
Thursday Moderate
PM2.5
Friday Moderate
PM2.5
Saturday Moderate
PM2.5

Snow Depth

Station Depth Elevation
Leavitt Meadows 0 in 7200 ft
CSS Lab 1 in 6900 ft
Adin Mountain 1 in 6200 ft

Earthquake Activity

City Distance Mag. Time & Date
Gilroy, California 115 miles 3.5 9:10 AM PDT
2014-09-01
Gonzales, California 98 miles 2.7 9:48 PM PDT
2014-08-30
Ridgemark, California 103 miles 3.4 4:32 PM PDT
2014-08-29
Minimum magnitude displayed is 2.5.

Coastal Water Temperatures

Place Temperature
No Stations Reporting

Nearby Weather Stations